Time;durP1;ratioP1;P1;durP2;ratioP2;P2;SDS_P1;SDS_P2;PMS_P1;PMS_P2;Temp;Humidity;BMP_temperature;BMP_pressure;BME280_temperature;BME280_humidity;BME280_pressure;Samples;Min_cycle;Max_cycle;Signal;HPM_P1;HPM_P2
2023/04/16 00:02:16;;;;;;;14.87;13.67;;;10.80;99.90;;;;;;5063970;28;20242;-87
2023/04/16 00:04:42;;;;;;;14.43;13.23;;;10.80;99.90;;;;;;5062285;28;20236;-90
2023/04/16 00:07:07;;;;;;;17.13;15.63;;;10.90;99.90;;;;;;5064666;28;20211;-91
2023/04/16 00:09:33;;;;;;;15.77;14.37;;;10.90;99.90;;;;;;5064810;28;20221;-90
2023/04/16 00:11:59;;;;;;;14.03;12.93;;;11.00;99.90;;;;;;5063706;28;20209;-88
2023/04/16 00:14:25;;;;;;;15.27;14.03;;;10.90;99.90;;;;;;5063979;28;20180;-88
2023/04/16 00:16:50;;;;;;;14.57;13.37;;;10.90;99.90;;;;;;5062840;28;20177;-87
2023/04/16 00:19:16;;;;;;;14.57;13.37;;;10.90;99.90;;;;;;5062249;28;20207;-87
2023/04/16 00:21:41;;;;;;;15.07;13.87;;;11.00;99.90;;;;;;5064202;28;20183;-88
2023/04/16 00:24:07;;;;;;;15.47;14.27;;;11.00;99.90;;;;;;5059951;28;20188;-88
2023/04/16 00:26:33;;;;;;;14.37;13.20;;;11.10;99.90;;;;;;5060380;28;20215;-89
2023/04/16 00:28:59;;;;;;;14.87;13.67;;;11.00;99.90;;;;;;5060402;28;20701;-87
2023/04/16 00:31:29;;;;;;;15.13;13.93;;;11.10;99.90;;;;;;5066602;28;20744;-88
2023/04/16 00:33:55;;;;;;;15.70;14.40;;;11.00;99.90;;;;;;5082940;28;20215;-87
2023/04/16 00:36:22;;;;;;;15.07;13.77;;;10.90;99.90;;;;;;5064934;28;20190;-87
2023/04/16 00:38:48;;;;;;;15.10;13.80;;;10.90;99.90;;;;;;5082078;28;20253;-91
2023/04/16 00:41:14;;;;;;;15.03;13.83;;;10.90;99.90;;;;;;5082572;28;20176;-85
2023/04/16 00:43:39;;;;;;;14.90;13.60;;;11.00;99.90;;;;;;5082999;28;20209;-87
2023/04/16 00:46:07;;;;;;;15.27;14.07;;;11.10;99.90;;;;;;5082453;28;20398;-88
2023/04/16 00:48:33;;;;;;;15.13;13.93;;;11.00;99.90;;;;;;5080550;28;20196;-88
2023/04/16 00:51:00;;;;;;;15.27;14.07;;;11.00;99.90;;;;;;5071059;28;20185;-90
2023/04/16 00:53:26;;;;;;;16.07;14.67;;;11.00;99.90;;;;;;5081394;28;20176;-86
2023/04/16 00:55:54;;;;;;;14.40;13.20;;;11.10;99.90;;;;;;5084578;28;20238;-89
2023/04/16 00:58:20;;;;;;;16.30;15.00;;;11.10;99.90;;;;;;5066761;28;20190;-90
2023/04/16 01:00:46;;;;;;;16.03;14.63;;;11.00;99.90;;;;;;5064941;28;20194;-87
2023/04/16 01:03:12;;;;;;;15.53;14.33;;;10.90;99.90;;;;;;5064220;28;20195;-87
2023/04/16 01:05:38;;;;;;;16.23;14.83;;;10.90;99.90;;;;;;5064855;28;20207;-88
2023/04/16 01:08:04;;;;;;;15.33;13.77;;;10.80;99.90;;;;;;5065041;28;20184;-88
2023/04/16 01:10:29;;;;;;;16.87;15.40;;;10.80;99.90;;;;;;5063980;28;20205;-90
2023/04/16 01:12:55;;;;;;;15.40;14.10;;;10.80;99.90;;;;;;5064347;28;20285;-89
2023/04/16 01:15:21;;;;;;;15.77;14.40;;;10.80;99.90;;;;;;5061788;28;20184;-87
2023/04/16 01:17:47;;;;;;;14.73;13.43;;;10.80;99.90;;;;;;5064617;28;20321;-87
2023/04/16 01:20:12;;;;;;;14.90;13.70;;;10.90;99.90;;;;;;5066207;28;20259;-88
2023/04/16 01:22:38;;;;;;;16.23;14.83;;;10.90;99.90;;;;;;5066364;28;20195;-88
2023/04/16 01:25:04;;;;;;;15.53;14.23;;;10.80;99.90;;;;;;5067544;28;20214;-90
2023/04/16 01:27:30;;;;;;;16.50;15.10;;;10.70;99.90;;;;;;5067517;28;20179;-87
2023/04/16 01:29:55;;;;;;;15.53;14.30;;;10.70;99.90;;;;;;5074516;28;20228;-88
2023/04/16 01:32:21;;;;;;;17.30;15.87;;;10.80;99.90;;;;;;5085784;28;20185;-88
2023/04/16 01:34:47;;;;;;;16.30;15.00;;;10.80;99.90;;;;;;5085538;28;20170;-90
2023/04/16 01:37:12;;;;;;;16.47;14.97;;;10.70;99.90;;;;;;5086091;28;20183;-88
2023/04/16 01:39:38;;;;;;;16.90;15.50;;;10.70;99.90;;;;;;5087819;28;20569;-89
2023/04/16 01:42:07;;;;;;;16.47;15.07;;;10.70;99.90;;;;;;5090607;28;20255;-88
2023/04/16 01:44:32;;;;;;;16.43;15.07;;;10.70;99.90;;;;;;5090520;28;20223;-90
2023/04/16 01:46:58;;;;;;;17.10;15.60;;;10.70;99.90;;;;;;5080033;28;20220;-90
2023/04/16 01:49:27;;;;;;;16.37;15.07;;;10.70;99.90;;;;;;5094020;28;20192;-90
2023/04/16 01:51:53;;;;;;;17.70;16.17;;;10.60;99.90;;;;;;5095399;28;20155;-88
2023/04/16 01:54:18;;;;;;;16.33;14.90;;;10.60;99.90;;;;;;5077784;28;20196;-90
2023/04/16 01:56:44;;;;;;;15.70;14.40;;;10.70;99.90;;;;;;5142243;23;20245;-88
2023/04/16 01:59:11;;;;;;;15.53;14.27;;;10.80;99.90;;;;;;5126953;28;20174;-89
2023/04/16 02:01:40;;;;;;;17.60;16.00;;;10.70;99.90;;;;;;5127289;28;20184;-88
2023/04/16 02:04:09;;;;;;;17.27;15.80;;;10.70;99.90;;;;;;5129159;28;20216;-86
2023/04/16 02:06:35;;;;;;;17.70;16.10;;;10.60;99.90;;;;;;5112568;28;20215;-89
2023/04/16 02:09:04;;;;;;;17.70;16.30;;;10.50;99.90;;;;;;5110524;28;20186;-87
2023/04/16 02:11:30;;;;;;;17.40;15.87;;;10.50;99.90;;;;;;5128223;28;20169;-87
2023/04/16 02:13:59;;;;;;;17.13;15.73;;;10.40;99.90;;;;;;5129754;28;20192;-89
2023/04/16 02:16:25;;;;;;;16.27;14.87;;;10.50;99.90;;;;;;5126187;28;20218;-90
2023/04/16 02:18:51;;;;;;;15.83;14.50;;;10.50;99.90;;;;;;5127969;28;20172;-88
2023/04/16 02:21:16;;;;;;;14.80;13.50;;;10.50;99.90;;;;;;5125844;28;20184;-87
2023/04/16 02:23:46;;;;;;;15.60;14.30;;;10.60;99.90;;;;;;5126340;28;20180;-87
2023/04/16 02:26:12;;;;;;;16.83;15.33;;;10.60;99.90;;;;;;5107633;28;20222;-89
2023/04/16 02:28:38;;;;;;;17.13;15.70;;;10.40;99.90;;;;;;5126737;28;20175;-87
2023/04/16 02:31:04;;;;;;;16.97;15.37;;;10.50;99.90;;;;;;5125914;28;20183;-88
2023/04/16 02:33:30;;;;;;;17.27;15.77;;;10.40;99.90;;;;;;5129362;28;20176;-87
2023/04/16 02:35:56;;;;;;;16.00;14.70;;;10.50;99.90;;;;;;5118125;28;20193;-88
2023/04/16 02:38:22;;;;;;;17.70;16.10;;;10.50;99.90;;;;;;5099481;28;20275;-88
2023/04/16 02:40:48;;;;;;;17.50;16.00;;;10.50;99.90;;;;;;5118083;28;20210;-88
2023/04/16 02:43:14;;;;;;;16.50;15.10;;;10.50;99.90;;;;;;5118699;28;20253;-85
2023/04/16 02:45:39;;;;;;;17.80;16.10;;;10.40;99.90;;;;;;5116326;28;20221;-87
2023/04/16 02:48:07;;;;;;;16.97;15.57;;;10.40;99.90;;;;;;5115353;28;20177;-87
2023/04/16 02:50:33;;;;;;;16.77;15.33;;;10.50;99.90;;;;;;5096834;28;20178;-87
2023/04/16 02:52:59;;;;;;;17.77;16.20;;;10.50;99.90;;;;;;5077297;28;20213;-89
2023/04/16 02:55:24;;;;;;;17.47;15.97;;;10.50;99.90;;;;;;5093926;28;20221;-88
2023/04/16 02:57:51;;;;;;;17.53;16.03;;;10.40;99.90;;;;;;5095091;28;20167;-87
2023/04/16 03:00:17;;;;;;;18.37;16.77;;;10.50;99.90;;;;;;5095668;28;20169;-87
2023/04/16 03:02:43;;;;;;;17.87;16.27;;;10.50;99.90;;;;;;5096739;28;20186;-88
2023/04/16 03:05:10;;;;;;;15.93;14.63;;;10.40;99.90;;;;;;5096367;28;20213;-88
2023/04/16 03:07:38;;;;;;;17.00;15.57;;;10.50;99.90;;;;;;5097381;28;20174;-88
2023/04/16 03:10:05;;;;;;;17.00;15.57;;;10.60;99.90;;;;;;5097870;28;20538;-87
2023/04/16 03:12:30;;;;;;;16.47;15.00;;;10.70;99.90;;;;;;5063363;28;20189;-86
2023/04/16 03:14:56;;;;;;;17.33;15.83;;;10.70;99.90;;;;;;5097943;28;20194;-87
2023/04/16 03:17:22;;;;;;;17.27;15.87;;;10.60;99.90;;;;;;5080982;28;20178;-89
2023/04/16 03:19:49;;;;;;;17.03;15.50;;;10.70;99.90;;;;;;5097949;28;20175;-86
2023/04/16 03:22:15;;;;;;;17.60;16.17;;;10.70;99.90;;;;;;5098352;28;20193;-88
2023/04/16 03:24:41;;;;;;;17.67;16.07;;;10.60;99.90;;;;;;5096452;28;20186;-87
2023/04/16 03:27:06;;;;;;;18.00;16.40;;;10.50;99.90;;;;;;5095372;28;20205;-87
2023/04/16 03:29:32;;;;;;;16.77;15.37;;;10.40;99.90;;;;;;5097791;28;20183;-88
2023/04/16 03:31:58;;;;;;;17.00;15.60;;;10.50;99.90;;;;;;5110649;28;20585;-87
2023/04/16 03:34:23;;;;;;;16.57;15.20;;;10.60;99.90;;;;;;5117333;28;20603;-87
2023/04/16 03:36:49;;;;;;;16.63;15.23;;;10.70;99.90;;;;;;5114792;28;20203;-87
2023/04/16 03:39:15;;;;;;;16.23;14.83;;;10.60;99.90;;;;;;5115392;28;20189;-89
2023/04/16 03:41:41;;;;;;;16.93;15.37;;;10.50;99.90;;;;;;5116038;28;20212;-87
2023/04/16 03:44:07;;;;;;;15.60;14.30;;;10.60;99.90;;;;;;5113999;28;20188;-88
2023/04/16 03:46:33;;;;;;;16.63;15.13;;;10.40;99.90;;;;;;5114855;28;20220;-89
2023/04/16 03:48:58;;;;;;;17.20;15.80;;;10.40;99.90;;;;;;5108702;28;20183;-85
2023/04/16 03:51:25;;;;;;;16.43;14.90;;;10.40;99.90;;;;;;5093511;28;20186;-87
2023/04/16 03:53:51;;;;;;;15.70;14.40;;;10.40;99.90;;;;;;5075647;28;20204;-88
2023/04/16 03:56:17;;;;;;;16.40;15.00;;;10.50;99.90;;;;;;5092256;28;20219;-89
2023/04/16 03:58:42;;;;;;;14.67;13.50;;;10.50;99.90;;;;;;5095214;28;20678;-87
2023/04/16 04:01:08;;;;;;;15.60;14.30;;;10.50;99.90;;;;;;5116638;27;20192;-88
2023/04/16 04:03:34;;;;;;;16.53;15.13;;;10.60;99.90;;;;;;5136948;27;20193;-88
2023/04/16 04:05:59;;;;;;;15.27;14.07;;;10.60;99.90;;;;;;5117637;27;20696;-87
2023/04/16 04:08:25;;;;;;;15.17;13.87;;;10.60;99.90;;;;;;5136687;27;20165;-86
2023/04/16 04:10:51;;;;;;;14.97;13.50;;;10.60;99.90;;;;;;5137071;27;20176;-88
2023/04/16 04:13:16;;;;;;;14.50;13.20;;;10.70;99.90;;;;;;5136070;27;20174;-89
2023/04/16 04:15:43;;;;;;;14.27;13.13;;;10.60;99.90;;;;;;5134411;27;20268;-87
2023/04/16 04:18:09;;;;;;;14.70;13.50;;;10.70;99.90;;;;;;5136478;27;20195;-87
2023/04/16 04:20:39;;;;;;;15.17;13.87;;;10.70;99.90;;;;;;5136459;27;20177;-88
2023/04/16 04:23:05;;;;;;;15.40;14.10;;;10.70;99.90;;;;;;5135026;27;20181;-87
2023/04/16 04:25:31;;;;;;;14.30;13.20;;;10.70;99.90;;;;;;5133112;27;20281;-86
2023/04/16 04:27:56;;;;;;;14.17;12.87;;;10.70;99.90;;;;;;5132578;27;20169;-87
2023/04/16 04:30:22;;;;;;;14.03;12.90;;;10.50;99.90;;;;;;5134371;27;20191;-88
2023/04/16 04:32:48;;;;;;;14.20;13.00;;;10.50;99.90;;;;;;5134039;27;20199;-88
2023/04/16 04:35:14;;;;;;;13.30;12.07;;;10.50;99.90;;;;;;5105647;28;20200;-86
2023/04/16 04:37:41;;;;;;;13.70;12.50;;;10.50;99.90;;;;;;5113924;28;20604;-88
2023/04/16 04:40:07;;;;;;;14.23;12.83;;;10.50;99.90;;;;;;5113297;28;20181;-86
2023/04/16 04:42:33;;;;;;;14.47;13.17;;;10.50;99.90;;;;;;5112545;28;20193;-86
2023/04/16 04:44:58;;;;;;;13.90;12.70;;;10.50;99.90;;;;;;5112638;28;20196;-86
2023/04/16 04:47:24;;;;;;;14.50;13.17;;;10.50;99.90;;;;;;5112805;28;20349;-87
2023/04/16 04:49:50;;;;;;;13.70;12.50;;;10.40;99.90;;;;;;5100292;28;20178;-88
2023/04/16 04:52:15;;;;;;;14.63;13.23;;;10.40;99.90;;;;;;5092786;28;20262;-87
2023/04/16 04:54:41;;;;;;;13.80;12.60;;;10.40;99.90;;;;;;5094363;28;20285;-87
2023/04/16 04:57:07;;;;;;;13.10;11.97;;;10.40;99.90;;;;;;5094799;28;20220;-88
2023/04/16 04:59:33;;;;;;;12.83;11.63;;;10.40;99.90;;;;;;5094953;28;20187;-89
2023/04/16 05:01:59;;;;;;;13.10;11.80;;;10.40;99.90;;;;;;5077041;28;20715;-88
2023/04/16 05:04:25;;;;;;;14.23;12.93;;;10.30;99.90;;;;;;5095001;28;20276;-87
2023/04/16 05:06:50;;;;;;;13.00;11.90;;;10.30;99.90;;;;;;5097249;28;20597;-88
2023/04/16 05:09:16;;;;;;;13.13;11.93;;;10.30;99.90;;;;;;5096286;28;20667;-86
2023/04/16 05:11:42;;;;;;;13.80;12.50;;;10.40;99.90;;;;;;5096255;28;20186;-87
2023/04/16 05:14:08;;;;;;;13.50;12.30;;;10.30;99.90;;;;;;5096465;28;20178;-87
2023/04/16 05:16:36;;;;;;;12.77;11.57;;;10.30;99.90;;;;;;5092222;28;20185;-88
2023/04/16 05:19:03;;;;;;;11.60;10.60;;;10.40;99.90;;;;;;5093294;28;20665;-87
2023/04/16 05:21:28;;;;;;;12.30;11.27;;;10.40;99.90;;;;;;5091731;28;20221;-86
2023/04/16 05:23:54;;;;;;;12.57;11.47;;;10.30;99.90;;;;;;5091640;28;20186;-87
2023/04/16 05:26:21;;;;;;;12.30;11.30;;;10.40;99.90;;;;;;5091507;28;20248;-88
2023/04/16 05:28:47;;;;;;;13.70;12.50;;;10.40;99.90;;;;;;5092034;28;20603;-86
2023/04/16 05:31:13;;;;;;;18.10;16.80;;;10.30;99.90;;;;;;5124138;28;20188;-87
2023/04/16 05:33:38;;;;;;;13.20;12.10;;;10.30;99.90;;;;;;5114152;28;20185;-88
2023/04/16 05:36:04;;;;;;;13.87;12.67;;;10.40;99.90;;;;;;5112165;28;20359;-88
2023/04/16 05:38:30;;;;;;;14.80;13.50;;;10.40;99.90;;;;;;5104219;28;20236;-87
2023/04/16 05:40:57;;;;;;;13.57;12.27;;;10.30;99.90;;;;;;5091911;28;20185;-88
2023/04/16 05:43:23;;;;;;;13.10;11.87;;;10.30;99.90;;;;;;5091450;28;20186;-87
2023/04/16 05:45:48;;;;;;;12.97;11.77;;;10.30;99.90;;;;;;5091181;28;20222;-88
2023/04/16 05:48:14;;;;;;;12.47;11.37;;;10.30;99.90;;;;;;5091489;28;20185;-87
2023/04/16 05:50:40;;;;;;;13.10;12.00;;;10.30;99.90;;;;;;5077102;28;20781;-87
2023/04/16 05:53:07;;;;;;;12.20;11.20;;;10.40;99.90;;;;;;5095880;28;20178;-87
2023/04/16 05:55:37;;;;;;;12.70;11.57;;;10.30;99.90;;;;;;5112722;28;20307;-88
2023/04/16 05:58:03;;;;;;;13.40;12.30;;;10.40;99.90;;;;;;5128817;28;20189;-89
2023/04/16 06:00:33;;;;;;;11.63;10.63;;;10.40;99.90;;;;;;5107515;28;20246;-88
2023/04/16 06:02:59;;;;;;;12.37;11.27;;;10.40;99.90;;;;;;5125278;28;20255;-90
2023/04/16 06:05:25;;;;;;;11.83;10.73;;;10.60;99.90;;;;;;5134282;27;20240;-90
2023/04/16 06:07:51;;;;;;;12.27;11.17;;;10.70;99.90;;;;;;5110147;27;20778;-90
2023/04/16 06:10:17;;;;;;;12.47;11.37;;;10.60;99.90;;;;;;5128119;27;20231;-90
2023/04/16 06:12:43;;;;;;;12.87;11.77;;;10.50;99.90;;;;;;5129816;27;20210;-87
2023/04/16 06:15:09;;;;;;;12.47;11.47;;;10.50;99.90;;;;;;5128838;27;20735;-88
2023/04/16 06:17:35;;;;;;;12.33;11.33;;;10.50;99.90;;;;;;5127913;27;20205;-88
2023/04/16 06:20:00;;;;;;;13.17;12.00;;;10.40;99.90;;;;;;5132638;27;20640;-87
2023/04/16 06:22:26;;;;;;;12.33;11.33;;;10.30;99.90;;;;;;5108641;27;20197;-88
2023/04/16 06:24:52;;;;;;;13.10;11.90;;;10.40;99.90;;;;;;5128685;27;20561;-88
2023/04/16 06:27:18;;;;;;;12.63;11.43;;;10.40;99.90;;;;;;5122879;27;20230;-88
2023/04/16 06:29:44;;;;;;;12.27;11.17;;;10.40;99.90;;;;;;5117512;27;20192;-87
2023/04/16 06:32:10;;;;;;;12.07;11.00;;;10.30;99.90;;;;;;5127957;27;20192;-88
2023/04/16 06:34:38;;;;;;;14.00;12.70;;;10.50;99.90;;;;;;5123190;27;20327;-88
2023/04/16 06:37:03;;;;;;;13.37;12.20;;;10.70;99.90;;;;;;5128469;27;20174;-90
2023/04/16 06:39:29;;;;;;;12.17;11.07;;;10.60;99.90;;;;;;5127068;27;20181;-88
2023/04/16 06:41:56;;;;;;;12.90;11.50;;;10.40;99.90;;;;;;5131586;27;20188;-90
2023/04/16 06:44:22;;;;;;;13.53;12.17;;;10.40;99.90;;;;;;5126065;27;20207;-88
2023/04/16 06:46:47;;;;;;;13.93;11.30;;;10.50;99.90;;;;;;5126369;27;20562;-91
2023/04/16 06:49:13;;;;;;;14.40;13.10;;;10.50;99.90;;;;;;5130881;27;20183;-93
2023/04/16 06:51:39;;;;;;;13.37;11.97;;;10.60;99.90;;;;;;5136543;27;20204;-91
2023/04/16 06:54:05;;;;;;;13.03;11.90;;;10.70;99.90;;;;;;5130385;27;20196;-91
2023/04/16 06:56:31;;;;;;;13.50;12.00;;;10.70;99.90;;;;;;5116298;28;20193;-91
2023/04/16 06:58:57;;;;;;;17.50;15.90;;;10.70;99.90;;;;;;5117535;28;20223;-91
2023/04/16 07:01:23;;;;;;;134.87;121.77;;;10.80;99.90;;;;;;5119269;28;20177;-92
2023/04/16 07:03:53;;;;;;;25.33;22.93;;;10.70;99.90;;;;;;5099549;28;20231;-91
2023/04/16 07:06:19;;;;;;;15.60;14.10;;;10.80;99.90;;;;;;5116852;28;20221;-92
2023/04/16 07:08:44;;;;;;;28.70;26.10;;;10.80;99.90;;;;;;5099918;28;20185;-91
2023/04/16 07:11:11;;;;;;;13.30;12.10;;;10.90;99.90;;;;;;5119360;28;20183;-92
2023/04/16 07:13:36;;;;;;;13.60;12.40;;;11.00;99.90;;;;;;5118765;28;20181;-91
2023/04/16 07:16:02;;;;;;;14.23;13.00;;;11.00;98.50;;;;;;5098106;28;20206;-91
2023/04/16 07:18:28;;;;;;;14.63;13.13;;;11.00;99.90;;;;;;5117381;28;20178;-92
2023/04/16 07:20:53;;;;;;;12.63;11.33;;;11.00;99.90;;;;;;5119287;28;20189;-92
2023/04/16 07:23:19;;;;;;;13.53;12.27;;;11.00;99.90;;;;;;5119929;27;20189;-92
2023/04/16 07:25:45;;;;;;;14.13;12.83;;;11.10;99.90;;;;;;5129181;27;20565;-91
2023/04/16 07:28:10;;;;;;;13.40;12.00;;;11.10;99.90;;;;;;5119765;27;20645;-93
2023/04/16 07:30:36;;;;;;;12.83;11.63;;;11.00;99.90;;;;;;5122087;27;20174;-90
2023/04/16 07:33:03;;;;;;;11.97;10.87;;;11.10;99.90;;;;;;5113968;27;20189;-91
2023/04/16 07:35:29;;;;;;;12.13;10.93;;;11.20;97.00;;;;;;5134694;27;20660;-91
2023/04/16 07:37:55;;;;;;;12.67;11.47;;;11.20;97.80;;;;;;5117122;27;20193;-91
2023/04/16 07:40:22;;;;;;;13.93;12.73;;;11.20;97.10;;;;;;5139917;27;20192;-92
2023/04/16 07:42:47;;;;;;;10.53;9.53;;;11.10;98.60;;;;;;5154430;27;20193;-91
2023/04/16 07:45:13;;;;;;;11.13;10.13;;;11.10;96.30;;;;;;5155228;27;20215;-91
2023/04/16 07:47:39;;;;;;;11.93;10.83;;;11.10;97.70;;;;;;5156171;27;20191;-91
2023/04/16 07:50:05;;;;;;;13.17;11.43;;;11.00;99.20;;;;;;5139985;27;20202;-90
2023/04/16 07:52:31;;;;;;;12.77;11.67;;;11.00;99.90;;;;;;5117250;28;20256;-91
2023/04/16 07:54:57;;;;;;;12.33;11.23;;;10.70;99.90;;;;;;5117053;28;20209;-91
2023/04/16 07:57:23;;;;;;;11.00;9.97;;;10.70;99.90;;;;;;5116106;28;20182;-92
2023/04/16 07:59:49;;;;;;;12.53;11.40;;;10.90;99.90;;;;;;5116459;28;20238;-91
2023/04/16 08:02:15;;;;;;;12.00;10.80;;;10.80;98.80;;;;;;5117315;28;20181;-92
2023/04/16 08:04:42;;;;;;;11.80;10.60;;;10.70;99.90;;;;;;5126946;28;20193;-91
2023/04/16 08:07:08;;;;;;;11.30;10.23;;;10.70;99.90;;;;;;5117594;28;20254;-90
2023/04/16 08:09:34;;;;;;;11.73;10.63;;;10.70;99.90;;;;;;5118298;28;20256;-93
2023/04/16 08:12:01;;;;;;;10.83;9.87;;;10.90;99.90;;;;;;5122079;27;20193;-92
2023/04/16 08:14:27;;;;;;;11.70;10.60;;;10.90;99.90;;;;;;5132872;27;20208;-95
2023/04/16 08:16:53;;;;;;;11.37;10.37;;;11.10;99.90;;;;;;5129263;27;20845;-90
2023/04/16 08:19:18;;;;;;;11.50;10.43;;;11.10;99.90;;;;;;5105927;27;20209;-91
2023/04/16 08:21:44;;;;;;;11.17;10.10;;;11.10;98.90;;;;;;5108115;27;20202;-91
2023/04/16 08:24:10;;;;;;;10.43;9.53;;;11.10;97.90;;;;;;5126520;27;20629;-90
2023/04/16 08:26:36;;;;;;;10.33;9.40;;;11.30;95.90;;;;;;5110835;27;20251;-90
2023/04/16 08:29:02;;;;;;;10.40;9.50;;;11.40;95.90;;;;;;5126083;27;20226;-91
2023/04/16 08:31:28;;;;;;;9.73;8.93;;;11.40;96.00;;;;;;5104959;27;20247;-89
2023/04/16 08:33:54;;;;;;;10.50;9.43;;;11.20;88.90;;;;;;5100893;27;20177;-89
2023/04/16 08:36:19;;;;;;;10.53;9.53;;;11.00;93.30;;;;;;5107791;27;20343;-90
2023/04/16 08:38:45;;;;;;;9.83;8.93;;;11.20;93.30;;;;;;5113904;28;20193;-89
2023/04/16 08:41:12;;;;;;;9.20;8.40;;;11.30;90.70;;;;;;5105645;28;20177;-88
2023/04/16 08:43:43;;;;;;;8.90;8.10;;;11.40;91.80;;;;;;5126935;27;20215;-89
2023/04/16 08:46:11;;;;;;;9.43;8.53;;;11.50;92.10;;;;;;5136457;27;20756;-90
2023/04/16 08:48:37;;;;;;;9.23;8.43;;;11.50;89.00;;;;;;5092898;28;20185;-93
2023/04/16 08:51:09;;;;;;;9.10;8.30;;;11.60;88.70;;;;;;5100549;28;20177;-92
2023/04/16 08:53:47;;;;;;;9.40;8.50;;;11.70;89.50;;;;;;5101407;28;20174;-91
2023/04/16 08:56:14;;;;;;;10.03;9.03;;;11.80;89.70;;;;;;5131963;27;20213;-91
2023/04/16 08:58:40;;;;;;;11.63;8.10;;;11.70;89.60;;;;;;5099456;28;20607;-90
2023/04/16 09:01:09;;;;;;;9.37;8.23;;;11.90;89.50;;;;;;5113175;28;20189;-89
2023/04/16 09:03:35;;;;;;;9.60;8.70;;;12.00;83.90;;;;;;5116192;28;20210;-90
2023/04/16 09:06:03;;;;;;;9.03;8.23;;;12.00;84.60;;;;;;5093233;28;20214;-92
2023/04/16 09:08:29;;;;;;;9.07;8.17;;;11.90;85.70;;;;;;5112776;28;20255;-90
2023/04/16 09:10:56;;;;;;;9.33;8.40;;;11.90;84.30;;;;;;5096267;28;20368;-89
2023/04/16 09:13:22;;;;;;;9.10;8.30;;;11.90;84.70;;;;;;5114262;28;20162;-92
2023/04/16 09:15:55;;;;;;;8.60;7.83;;;11.80;87.00;;;;;;5114393;28;20213;-90
2023/04/16 09:18:26;;;;;;;9.53;8.60;;;11.70;89.80;;;;;;5097476;28;20210;-91
2023/04/16 09:20:52;;;;;;;9.07;8.13;;;11.70;86.20;;;;;;5116478;28;20175;-92
2023/04/16 09:23:21;;;;;;;10.30;8.73;;;11.80;87.30;;;;;;5105832;28;20201;-91
2023/04/16 09:25:47;;;;;;;9.50;8.60;;;11.70;90.40;;;;;;5089426;28;20209;-92
2023/04/16 09:28:32;;;;;;;9.03;8.23;;;11.70;89.00;;;;;;5115950;28;20198;-88
2023/04/16 09:31:13;;;;;;;10.83;8.70;;;11.60;89.20;;;;;;5097146;28;20175;-90
2023/04/16 09:33:39;;;;;;;9.67;8.77;;;11.70;89.50;;;;;;5111554;28;20191;-91
2023/04/16 09:36:08;;;;;;;9.93;8.97;;;11.60;90.30;;;;;;5107747;28;20215;-92
2023/04/16 09:38:48;;;;;;;9.47;8.57;;;11.60;91.30;;;;;;5100927;28;20700;-90
2023/04/16 09:41:15;;;;;;;9.87;8.87;;;11.60;89.10;;;;;;5102059;28;20183;-90
2023/04/16 09:44:07;;;;;;;10.70;9.70;;;11.60;86.70;;;;;;5088453;28;20185;-90
2023/04/16 09:46:35;;;;;;;10.43;9.43;;;11.70;88.20;;;;;;5102382;28;20218;-93
2023/04/16 09:49:19;;;;;;;10.70;9.60;;;11.80;88.90;;;;;;5116537;28;20188;-92
2023/04/16 09:51:47;;;;;;;10.70;9.70;;;11.80;86.80;;;;;;5118094;27;20255;-91
2023/04/16 09:54:13;;;;;;;10.33;9.43;;;11.80;86.60;;;;;;5119921;27;20186;-93
2023/04/16 09:56:44;;;;;;;11.03;9.90;;;11.80;85.90;;;;;;5116199;28;20211;-92
2023/04/16 09:59:20;;;;;;;10.30;9.30;;;11.80;87.70;;;;;;5096876;28;20188;-91
2023/04/16 10:01:48;;;;;;;11.60;10.60;;;11.80;89.10;;;;;;5100012;28;20179;-92
2023/04/16 10:04:14;;;;;;;12.37;11.27;;;11.90;87.90;;;;;;5099004;28;20183;-92
2023/04/16 10:06:41;;;;;;;15.53;14.10;;;11.90;87.20;;;;;;5114396;28;20285;-91
2023/04/16 10:09:09;;;;;;;11.03;9.93;;;11.90;87.30;;;;;;5101714;28;20181;-91
2023/04/16 10:11:44;;;;;;;10.87;9.87;;;11.90;85.00;;;;;;5117066;28;20199;-94
2023/04/16 10:14:10;;;;;;;10.30;9.20;;;11.90;85.00;;;;;;5098165;28;20265;-93
2023/04/16 10:16:40;;;;;;;10.00;9.10;;;12.00;86.90;;;;;;5113704;28;20263;-92
2023/04/16 10:19:06;;;;;;;11.13;10.03;;;12.00;86.90;;;;;;5091234;28;20178;-91
2023/04/16 10:21:50;;;;;;;10.13;9.23;;;12.00;83.90;;;;;;5111257;28;20190;-93
2023/04/16 10:24:19;;;;;;;10.00;9.20;;;12.00;84.80;;;;;;5099265;28;20167;-93
2023/04/16 10:26:46;;;;;;;10.30;9.37;;;12.00;88.20;;;;;;5099324;28;20219;-92
2023/04/16 10:29:12;;;;;;;9.60;8.70;;;11.90;85.40;;;;;;5100048;27;20342;-90
2023/04/16 10:31:39;;;;;;;11.20;10.20;;;12.00;84.50;;;;;;5104171;27;20186;-91
2023/04/16 10:34:08;;;;;;;10.47;9.47;;;11.80;86.30;;;;;;5078071;28;20684;-94
2023/04/16 10:36:37;;;;;;;11.33;10.23;;;11.80;89.20;;;;;;5107634;28;20242;-92
2023/04/16 10:39:10;;;;;;;13.20;12.00;;;11.80;88.70;;;;;;5118672;28;20186;-92
2023/04/16 10:41:36;;;;;;;10.17;9.00;;;11.80;90.50;;;;;;5118195;28;20683;-94
2023/04/16 10:44:11;;;;;;;10.33;9.37;;;11.90;88.70;;;;;;5098489;28;20239;-92
2023/04/16 10:46:50;;;;;;;10.07;9.17;;;12.00;86.50;;;;;;5096462;28;20195;-93
2023/04/16 10:49:18;;;;;;;10.13;9.20;;;12.00;88.20;;;;;;5092445;28;20174;-91
2023/04/16 10:52:10;;;;;;;9.60;8.70;;;12.10;86.30;;;;;;5112801;28;20630;-92
2023/04/16 10:54:37;;;;;;;12.13;11.13;;;12.10;82.80;;;;;;5109485;28;20285;-90
2023/04/16 10:57:08;;;;;;;11.13;10.13;;;12.10;83.10;;;;;;5091615;28;20194;-91
2023/04/16 10:59:35;;;;;;;10.07;9.13;;;12.00;84.40;;;;;;5103353;28;20175;-91
2023/04/16 11:02:07;;;;;;;8.80;7.93;;;11.90;86.50;;;;;;5090350;28;20190;-92
2023/04/16 11:04:34;;;;;;;9.77;8.87;;;12.10;84.90;;;;;;5096456;28;20754;-92
2023/04/16 11:07:15;;;;;;;9.47;8.57;;;12.10;82.50;;;;;;5108413;28;20224;-92
2023/04/16 11:09:53;;;;;;;9.20;8.40;;;12.10;81.60;;;;;;5099558;28;20176;-91
2023/04/16 11:12:33;;;;;;;9.90;8.93;;;12.10;83.50;;;;;;5134624;27;20257;-92
2023/04/16 11:15:00;;;;;;;9.37;8.47;;;12.10;84.60;;;;;;5117089;27;20204;-91
2023/04/16 11:17:45;;;;;;;10.10;9.10;;;12.10;87.10;;;;;;5094374;27;20291;-90
2023/04/16 11:20:21;;;;;;;10.70;9.70;;;12.10;87.20;;;;;;5099529;28;20168;-92
2023/04/16 11:22:49;;;;;;;9.70;8.83;;;12.10;87.50;;;;;;5116834;28;20672;-92
2023/04/16 11:25:29;;;;;;;9.63;8.83;;;12.10;87.90;;;;;;5095874;28;20206;-91
2023/04/16 11:27:57;;;;;;;9.10;8.30;;;12.10;88.50;;;;;;5115773;28;20285;-92
2023/04/16 11:30:38;;;;;;;11.10;10.20;;;12.00;89.80;;;;;;5111450;28;20173;-92
2023/04/16 11:33:10;;;;;;;10.23;9.33;;;12.00;90.90;;;;;;5092666;28;20174;-92
2023/04/16 11:35:38;;;;;;;9.00;8.20;;;11.90;92.60;;;;;;5101722;28;20266;-91
2023/04/16 11:38:05;;;;;;;8.07;7.37;;;11.90;93.70;;;;;;5124207;27;20212;-90
2023/04/16 11:40:31;;;;;;;9.10;8.30;;;11.80;94.00;;;;;;5103529;28;20277;-90
2023/04/16 11:43:13;;;;;;;8.40;7.63;;;11.80;95.20;;;;;;5112925;28;20557;-89
2023/04/16 11:45:57;;;;;;;8.73;8.00;;;11.80;96.30;;;;;;5111051;28;20220;-89
2023/04/16 11:48:23;;;;;;;8.57;7.77;;;11.80;97.30;;;;;;5110235;28;20186;-90
2023/04/16 11:50:57;;;;;;;8.90;8.13;;;11.80;95.30;;;;;;5088108;28;20174;-90
2023/04/16 11:53:23;;;;;;;8.90;8.10;;;11.90;97.00;;;;;;5100954;28;20179;-90
2023/04/16 11:55:49;;;;;;;8.40;7.60;;;11.90;99.20;;;;;;5089701;28;20291;-90
2023/04/16 11:58:15;;;;;;;8.20;7.50;;;11.90;99.90;;;;;;5102393;28;20232;-88
2023/04/16 12:00:41;;;;;;;9.33;8.53;;;12.00;99.90;;;;;;5094689;28;20182;-92
2023/04/16 12:03:07;;;;;;;9.30;8.47;;;11.90;99.90;;;;;;5106736;28;20204;-89
2023/04/16 12:05:34;;;;;;;8.97;8.17;;;11.90;99.90;;;;;;5116831;27;20263;-90
2023/04/16 12:08:08;;;;;;;8.77;7.97;;;11.80;99.90;;;;;;5112374;28;20179;-88
2023/04/16 12:10:55;;;;;;;9.07;8.27;;;11.90;99.90;;;;;;5093578;28;20238;-90
2023/04/16 12:13:22;;;;;;;8.60;7.80;;;12.00;99.90;;;;;;5088867;28;20191;-89
2023/04/16 12:15:50;;;;;;;8.50;7.70;;;12.00;99.90;;;;;;5091079;28;20230;-89
2023/04/16 12:18:17;;;;;;;8.57;7.77;;;12.00;98.80;;;;;;5109860;28;20191;-89
2023/04/16 12:20:44;;;;;;;8.53;7.73;;;12.00;99.00;;;;;;5110669;28;20182;-89
2023/04/16 12:23:27;;;;;;;10.30;9.40;;;11.90;99.90;;;;;;5110417;28;20187;-90
2023/04/16 12:25:54;;;;;;;10.60;9.70;;;11.80;99.90;;;;;;5108849;28;20220;-90
2023/04/16 12:28:34;;;;;;;8.33;7.60;;;11.90;99.90;;;;;;5102294;28;20180;-90
2023/04/16 12:31:01;;;;;;;8.40;7.60;;;11.90;99.90;;;;;;5128345;27;20184;-89
2023/04/16 12:33:27;;;;;;;11.70;10.80;;;11.90;99.90;;;;;;5113471;28;20341;-92